Time;durP1;ratioP1;P1;durP2;ratioP2;P2;SDS_P1;SDS_P2;PMS_P1;PMS_P2;Temp;Humidity;BMP_temperature;BMP_pressure;BME280_temperature;BME280_humidity;BME280_pressure;Samples;Min_cycle;Max_cycle;Signal;HPM_P1;HPM_P2
2023/12/05 00:00:43;;;;;;;7.50;6.23;;;6.00;99.90;;;;;;5063790;28;20474;-71
2023/12/05 00:03:10;;;;;;;10.23;6.10;;;6.00;99.90;;;;;;5061355;28;20784;-71
2023/12/05 00:05:37;;;;;;;11.40;7.67;;;6.00;99.90;;;;;;5063159;28;21049;-71
2023/12/05 00:08:05;;;;;;;4.80;4.27;;;6.10;99.90;;;;;;5037423;28;20546;-73
2023/12/05 00:10:32;;;;;;;6.30;4.90;;;6.20;99.90;;;;;;5037895;28;20488;-74
2023/12/05 00:13:00;;;;;;;9.17;4.23;;;6.30;99.90;;;;;;5050427;28;21016;-73
2023/12/05 00:15:27;;;;;;;10.00;7.20;;;6.20;99.90;;;;;;5017607;28;20499;-73
2023/12/05 00:17:54;;;;;;;11.63;6.70;;;6.10;99.90;;;;;;5022720;28;20544;-71
2023/12/05 00:20:20;;;;;;;6.70;6.10;;;6.10;99.90;;;;;;5060302;28;20524;-74
2023/12/05 00:22:47;;;;;;;6.40;3.10;;;6.20;99.90;;;;;;5061762;28;20483;-74
2023/12/05 00:25:16;;;;;;;8.43;3.27;;;6.40;99.90;;;;;;5040394;28;21031;-73
2023/12/05 00:27:42;;;;;;;17.60;4.30;;;6.40;99.90;;;;;;5062441;28;20536;-73
2023/12/05 00:30:10;;;;;;;3.63;3.43;;;6.50;99.90;;;;;;5050097;28;20553;-72
2023/12/05 00:32:37;;;;;;;4.30;3.27;;;6.60;99.90;;;;;;5029283;28;20522;-72
2023/12/05 00:35:05;;;;;;;3.03;2.53;;;6.60;99.90;;;;;;5041290;28;21082;-74
2023/12/05 00:37:31;;;;;;;4.30;2.77;;;6.70;99.90;;;;;;5060692;28;20880;-75
2023/12/05 00:39:58;;;;;;;4.20;2.33;;;6.80;99.90;;;;;;5060901;28;21664;-74
2023/12/05 00:42:26;;;;;;;4.53;1.60;;;6.90;99.90;;;;;;5047174;28;20559;-73
2023/12/05 00:44:53;;;;;;;2.50;2.23;;;6.90;99.90;;;;;;5017478;28;20518;-74
2023/12/05 00:47:20;;;;;;;11.23;2.90;;;7.00;99.90;;;;;;5052571;28;20483;-72
2023/12/05 00:49:47;;;;;;;4.80;1.90;;;;;;;;;;5020075;28;20996;-74
2023/12/05 00:52:14;;;;;;;31.30;3.67;;;7.00;99.90;;;;;;5054822;28;20937;-75
2023/12/05 00:54:41;;;;;;;5.23;3.03;;;7.00;99.90;;;;;;5054797;28;20505;-72
2023/12/05 00:57:08;;;;;;;2.20;1.83;;;7.10;99.90;;;;;;5049128;28;20489;-72
2023/12/05 00:59:36;;;;;;;14.43;3.30;;;7.20;99.90;;;;;;5048770;28;21070;-71
2023/12/05 01:02:04;;;;;;;2.83;2.50;;;7.30;99.90;;;;;;5037298;28;20517;-72
2023/12/05 01:04:31;;;;;;;1.90;1.60;;;7.30;99.90;;;;;;5058949;28;20846;-73
2023/12/05 01:06:58;;;;;;;3.47;1.80;;;7.30;99.90;;;;;;5058594;28;20543;-75
2023/12/05 01:09:24;;;;;;;5.40;1.80;;;7.30;99.90;;;;;;5061294;28;20532;-74
2023/12/05 01:11:51;;;;;;;2.50;2.13;;;7.40;99.90;;;;;;5049664;28;20491;-73
2023/12/05 01:14:19;;;;;;;6.77;1.87;;;7.30;99.90;;;;;;5053903;28;20540;-72
2023/12/05 01:16:47;;;;;;;2.50;1.90;;;7.30;99.90;;;;;;5060802;28;20862;-74
2023/12/05 01:19:14;;;;;;;3.97;2.13;;;7.30;99.90;;;;;;5059575;28;20570;-72
2023/12/05 01:21:41;;;;;;;2.50;2.30;;;7.30;99.90;;;;;;5060696;28;20762;-72
2023/12/05 01:24:08;;;;;;;2.50;1.60;;;7.30;99.90;;;;;;5055812;28;20715;-70
2023/12/05 01:26:35;;;;;;;9.50;2.30;;;7.30;99.90;;;;;;5040640;28;20483;-69
2023/12/05 01:29:03;;;;;;;4.53;1.50;;;7.40;99.90;;;;;;5041401;28;20484;-70
2023/12/05 01:31:29;;;;;;;3.70;2.30;;;7.50;99.90;;;;;;5049791;28;20475;-68
2023/12/05 01:33:58;;;;;;;10.83;2.00;;;7.50;99.90;;;;;;5018184;28;20495;-71
2023/12/05 01:36:26;;;;;;;3.03;1.60;;;7.50;99.90;;;;;;5010399;28;20463;-69
2023/12/05 01:38:54;;;;;;;9.40;1.93;;;7.50;99.90;;;;;;5048771;28;20483;-70
2023/12/05 01:41:21;;;;;;;2.47;1.80;;;7.60;99.90;;;;;;5043623;28;20478;-71
2023/12/05 01:43:48;;;;;;;1.90;1.70;;;7.50;99.90;;;;;;5047345;28;20474;-72
2023/12/05 01:46:16;;;;;;;3.23;1.30;;;7.50;99.90;;;;;;5059552;28;20881;-72
2023/12/05 01:48:44;;;;;;;3.50;1.80;;;7.50;99.90;;;;;;5059652;28;20483;-71
2023/12/05 01:51:12;;;;;;;4.53;1.50;;;7.60;99.90;;;;;;5054130;28;20463;-72
2023/12/05 01:53:41;;;;;;;2.20;1.67;;;7.50;99.90;;;;;;5058086;28;20840;-72
2023/12/05 01:56:11;;;;;;;5.50;2.33;;;7.50;99.90;;;;;;5057087;28;21013;-68
2023/12/05 01:58:38;;;;;;;7.63;1.50;;;7.60;99.90;;;;;;5055182;28;20483;-72
2023/12/05 02:01:05;;;;;;;6.23;2.13;;;7.60;99.90;;;;;;5058151;28;20996;-71
2023/12/05 02:03:32;;;;;;;3.50;2.50;;;7.60;99.90;;;;;;5056050;28;20486;-75
2023/12/05 02:05:59;;;;;;;2.10;1.20;;;7.60;99.90;;;;;;5058349;28;20981;-74
2023/12/05 02:08:28;;;;;;;5.17;1.40;;;7.60;99.90;;;;;;5056725;28;20536;-74
2023/12/05 02:10:55;;;;;;;2.80;1.90;;;7.60;99.90;;;;;;5034441;28;20924;-71
2023/12/05 02:13:22;;;;;;;1.70;1.00;;;7.60;99.90;;;;;;5041407;28;20487;-73
2023/12/05 02:15:54;;;;;;;3.73;1.97;;;7.60;99.90;;;;;;5044665;28;20489;-72
2023/12/05 02:18:24;;;;;;;8.90;3.07;;;7.60;99.90;;;;;;5032909;28;20968;-70
2023/12/05 02:20:56;;;;;;;3.57;1.60;;;7.60;99.90;;;;;;5053013;28;20612;-69
2023/12/05 02:23:42;;;;;;;2.40;1.43;;;7.60;99.90;;;;;;5052071;28;20980;-73
2023/12/05 02:26:15;;;;;;;2.43;1.20;;;7.60;99.90;;;;;;5045526;28;20470;-71
2023/12/05 02:28:44;;;;;;;3.30;1.33;;;7.60;99.90;;;;;;5047306;28;20533;-72
2023/12/05 02:31:11;;;;;;;2.47;1.53;;;7.60;99.90;;;;;;5016207;28;20908;-74
2023/12/05 02:33:38;;;;;;;3.00;1.43;;;7.60;99.90;;;;;;5043834;28;20491;-72
2023/12/05 02:36:15;;;;;;;2.30;1.67;;;7.60;99.90;;;;;;4994356;28;21065;-71
2023/12/05 02:38:49;;;;;;;1.90;1.23;;;7.60;99.90;;;;;;5031463;28;20581;-72
2023/12/05 02:41:21;;;;;;;3.23;1.03;;;7.70;99.90;;;;;;5047812;28;20506;-73
2023/12/05 02:43:56;;;;;;;3.50;1.60;;;7.60;99.90;;;;;;4998030;28;20871;-71
2023/12/05 02:46:23;;;;;;;3.03;2.23;;;7.50;99.90;;;;;;5025555;28;20770;-72
2023/12/05 02:48:51;;;;;;;1.97;1.27;;;7.60;99.90;;;;;;5059601;28;20479;-72
2023/12/05 02:51:19;;;;;;;3.83;1.73;;;7.50;99.90;;;;;;5042741;28;21091;-68
2023/12/05 02:53:46;;;;;;;5.77;1.80;;;7.50;99.90;;;;;;5042347;28;20482;-67
2023/12/05 02:56:13;;;;;;;17.33;2.37;;;7.40;99.90;;;;;;5043342;28;20677;-69
2023/12/05 02:58:40;;;;;;;2.80;1.73;;;7.50;99.90;;;;;;5048674;28;20922;-72
2023/12/05 03:01:09;;;;;;;2.37;1.37;;;7.50;99.90;;;;;;5046907;28;20836;-72
2023/12/05 03:03:36;;;;;;;3.10;1.13;;;;;;;;;;5048070;28;20551;-74
2023/12/05 03:06:03;;;;;;;9.63;2.43;;;7.40;99.90;;;;;;5042773;28;20562;-72
2023/12/05 03:08:30;;;;;;;7.33;1.53;;;7.60;99.90;;;;;;5057244;28;20498;-72
2023/12/05 03:10:57;;;;;;;3.73;2.30;;;7.50;99.90;;;;;;5043496;28;21001;-73
2023/12/05 03:13:23;;;;;;;7.00;1.23;;;7.60;99.90;;;;;;5049524;28;20499;-72
2023/12/05 03:15:50;;;;;;;3.30;2.20;;;7.50;99.90;;;;;;5039337;28;20528;-70
2023/12/05 03:18:19;;;;;;;3.43;1.30;;;7.60;99.90;;;;;;5056458;28;20823;-71
2023/12/05 03:20:46;;;;;;;3.43;2.27;;;7.60;99.90;;;;;;5041785;28;20482;-67
2023/12/05 03:23:13;;;;;;;3.43;1.57;;;7.40;99.90;;;;;;5035521;28;20478;-73
2023/12/05 03:25:40;;;;;;;7.33;1.60;;;7.50;99.90;;;;;;5039237;28;20483;-72
2023/12/05 03:28:06;;;;;;;4.70;1.40;;;7.60;99.90;;;;;;5044523;28;20559;-70
2023/12/05 03:30:34;;;;;;;11.50;2.30;;;;;;;;;;5056941;28;20898;-69
2023/12/05 03:33:02;;;;;;;1.87;1.10;;;7.60;99.90;;;;;;5054696;28;20475;-69
2023/12/05 03:35:31;;;;;;;2.13;1.23;;;7.50;99.90;;;;;;5060043;28;20547;-69
2023/12/05 03:37:57;;;;;;;8.63;1.80;;;7.60;99.90;;;;;;5050010;28;21062;-70
2023/12/05 03:40:24;;;;;;;8.37;1.53;;;7.70;99.90;;;;;;5034481;28;20518;-70
2023/12/05 03:42:51;;;;;;;2.33;1.30;;;7.60;99.90;;;;;;5055516;28;20490;-74
2023/12/05 03:45:18;;;;;;;1.80;0.83;;;7.60;99.90;;;;;;5051911;28;20483;-72
2023/12/05 03:47:45;;;;;;;3.40;1.40;;;7.60;99.90;;;;;;5041414;28;20490;-71
2023/12/05 03:50:12;;;;;;;2.97;1.40;;;7.60;99.90;;;;;;5044335;28;20510;-69
2023/12/05 03:52:40;;;;;;;1.83;1.40;;;7.50;99.90;;;;;;5055677;28;20548;-68
2023/12/05 03:55:07;;;;;;;2.20;1.17;;;7.60;99.90;;;;;;5045850;28;20483;-71
2023/12/05 03:57:34;;;;;;;2.57;1.20;;;7.70;99.90;;;;;;5045412;28;20956;-73
2023/12/05 04:00:01;;;;;;;10.43;1.90;;;7.80;99.90;;;;;;5055795;28;20552;-71
2023/12/05 04:02:28;;;;;;;2.20;1.10;;;7.80;99.90;;;;;;5045223;28;20544;-70
2023/12/05 04:04:55;;;;;;;13.03;2.53;;;7.80;99.90;;;;;;5038216;28;20989;-69
2023/12/05 04:07:22;;;;;;;2.40;1.10;;;7.70;99.90;;;;;;5046885;28;20504;-71
2023/12/05 04:09:50;;;;;;;5.43;1.40;;;7.80;99.90;;;;;;5042547;28;20483;-68
2023/12/05 04:12:17;;;;;;;8.73;2.10;;;7.70;99.90;;;;;;5043632;28;20508;-71
2023/12/05 04:14:44;;;;;;;3.60;0.80;;;7.70;99.90;;;;;;5052619;28;20872;-74
2023/12/05 04:17:11;;;;;;;2.33;1.10;;;7.70;99.90;;;;;;5040085;28;20499;-72
2023/12/05 04:19:38;;;;;;;7.70;1.60;;;7.70;99.90;;;;;;5037347;28;20483;-71
2023/12/05 04:22:05;;;;;;;2.17;1.00;;;7.80;99.90;;;;;;5045819;28;20487;-71
2023/12/05 04:24:31;;;;;;;5.33;1.10;;;7.80;99.90;;;;;;5044362;28;20487;-71
2023/12/05 04:27:00;;;;;;;8.70;1.17;;;7.80;99.90;;;;;;5043549;28;20478;-72
2023/12/05 04:29:26;;;;;;;2.90;1.57;;;7.80;99.90;;;;;;5044506;28;20479;-71
2023/12/05 04:31:53;;;;;;;9.63;2.10;;;7.80;99.90;;;;;;5043208;28;20482;-70
2023/12/05 04:34:20;;;;;;;11.07;1.90;;;7.80;99.90;;;;;;5061098;28;20479;-69
2023/12/05 04:36:47;;;;;;;1.90;0.90;;;7.80;99.90;;;;;;5007035;28;20494;-70
2023/12/05 04:39:14;;;;;;;25.37;2.50;;;;;;;;;;5048253;28;20480;-70
2023/12/05 04:41:41;;;;;;;3.47;1.00;;;7.70;99.90;;;;;;5042556;28;20483;-70
2023/12/05 04:44:09;;;;;;;10.03;1.90;;;7.70;99.90;;;;;;5029577;28;20850;-70
2023/12/05 04:46:38;;;;;;;7.63;1.30;;;7.60;99.90;;;;;;5043147;28;20478;-68
2023/12/05 04:49:05;;;;;;;4.27;0.90;;;7.60;99.90;;;;;;5049512;28;20536;-70
2023/12/05 04:51:32;;;;;;;2.07;1.60;;;7.60;99.90;;;;;;5001183;28;20530;-68
2023/12/05 04:53:59;;;;;;;6.47;1.53;;;7.70;99.90;;;;;;5046037;28;20490;-70
2023/12/05 04:56:26;;;;;;;3.80;1.90;;;7.70;99.90;;;;;;5046498;28;20536;-70
2023/12/05 04:58:53;;;;;;;3.03;1.50;;;7.70;99.90;;;;;;5043814;28;20479;-69
2023/12/05 05:01:21;;;;;;;4.90;1.70;;;7.70;99.90;;;;;;5047986;28;20937;-69
2023/12/05 05:03:48;;;;;;;6.70;1.60;;;7.70;99.90;;;;;;5057906;28;20486;-69
2023/12/05 05:06:14;;;;;;;2.50;1.23;;;7.70;99.90;;;;;;5030051;28;20550;-70
2023/12/05 05:08:42;;;;;;;2.43;1.40;;;;;;;;;;5023271;28;20475;-69
2023/12/05 05:11:09;;;;;;;2.93;1.17;;;7.60;99.90;;;;;;5040677;28;20603;-67
2023/12/05 05:13:36;;;;;;;5.23;2.13;;;7.70;99.90;;;;;;5060647;28;20475;-68
2023/12/05 05:16:03;;;;;;;3.93;1.47;;;7.80;99.90;;;;;;5029302;28;20490;-71
2023/12/05 05:18:31;;;;;;;5.30;1.60;;;7.70;99.90;;;;;;5034866;28;20494;-71
2023/12/05 05:20:58;;;;;;;5.20;1.53;;;7.60;99.90;;;;;;5025208;28;20538;-70
2023/12/05 05:23:25;;;;;;;6.90;0.80;;;7.70;99.90;;;;;;5042632;28;20516;-68
2023/12/05 05:25:52;;;;;;;1.60;0.87;;;7.70;99.90;;;;;;5016713;28;20488;-69
2023/12/05 05:28:19;;;;;;;5.37;1.27;;;7.80;99.90;;;;;;5052506;28;20513;-69
2023/12/05 05:30:46;;;;;;;2.37;1.00;;;7.80;99.90;;;;;;5047105;28;20466;-72
2023/12/05 05:33:13;;;;;;;2.40;1.00;;;7.80;99.90;;;;;;5023341;28;20483;-71
2023/12/05 05:35:41;;;;;;;4.10;1.20;;;7.90;99.90;;;;;;5036882;28;20470;-70
2023/12/05 05:38:08;;;;;;;4.97;1.57;;;7.90;99.90;;;;;;5022020;28;20467;-68
2023/12/05 05:40:35;;;;;;;11.57;1.43;;;7.90;99.90;;;;;;5055088;28;20866;-72
2023/12/05 05:43:02;;;;;;;1.60;0.80;;;7.90;99.90;;;;;;5056103;28;21289;-71
2023/12/05 05:45:29;;;;;;;3.50;1.30;;;7.80;99.90;;;;;;5029067;28;20482;-69
2023/12/05 05:47:56;;;;;;;2.73;1.10;;;7.80;99.90;;;;;;5061658;28;20546;-71
2023/12/05 05:50:23;;;;;;;4.23;0.90;;;7.80;99.90;;;;;;5057234;28;20483;-72
2023/12/05 05:52:51;;;;;;;9.93;2.13;;;7.80;99.90;;;;;;5024814;28;20487;-70
2023/12/05 05:55:19;;;;;;;7.90;1.97;;;7.80;99.90;;;;;;5053890;28;20560;-69
2023/12/05 05:57:46;;;;;;;2.23;0.77;;;7.80;99.90;;;;;;4992573;28;20482;-72
2023/12/05 06:00:18;;;;;;;5.23;0.80;;;7.80;99.90;;;;;;5038531;28;20486;-70
2023/12/05 06:02:45;;;;;;;5.70;1.73;;;7.70;99.90;;;;;;5055796;28;20547;-72
2023/12/05 06:05:12;;;;;;;1.60;0.90;;;7.70;99.90;;;;;;5043622;28;20479;-69
2023/12/05 06:07:39;;;;;;;4.10;2.30;;;7.70;99.90;;;;;;5045937;28;21101;-72
2023/12/05 06:10:08;;;;;;;14.83;2.07;;;7.50;99.90;;;;;;5031147;28;20513;-70
2023/12/05 06:12:35;;;;;;;6.90;2.50;;;7.60;99.90;;;;;;5043360;28;20918;-70
2023/12/05 06:15:02;;;;;;;17.90;1.57;;;7.70;99.90;;;;;;5052802;28;20623;-70
2023/12/05 06:17:29;;;;;;;2.20;1.30;;;7.70;99.90;;;;;;5048246;28;20988;-70
2023/12/05 06:19:56;;;;;;;4.77;1.50;;;;;;;;;;5045133;28;20513;-75
2023/12/05 06:22:23;;;;;;;27.67;3.87;;;7.60;99.90;;;;;;5047312;28;20627;-77
2023/12/05 06:24:50;;;;;;;1.80;1.30;;;7.60;99.90;;;;;;5052742;28;20877;-77
2023/12/05 06:27:20;;;;;;;7.80;1.57;;;7.60;99.90;;;;;;5025079;28;20478;-74
2023/12/05 06:29:47;;;;;;;12.13;1.73;;;7.60;99.90;;;;;;5043621;28;20862;-73
2023/12/05 06:32:14;;;;;;;2.37;1.27;;;7.70;99.90;;;;;;5040360;28;20531;-72
2023/12/05 06:34:41;;;;;;;3.33;0.90;;;7.60;99.90;;;;;;5031717;28;21007;-71
2023/12/05 06:37:09;;;;;;;10.80;2.10;;;7.60;99.90;;;;;;5026682;28;20505;-67
2023/12/05 06:39:36;;;;;;;3.77;1.47;;;7.70;99.90;;;;;;5059866;28;20539;-71
2023/12/05 06:42:03;;;;;;;2.23;1.20;;;7.60;99.90;;;;;;4999752;28;20600;-71
2023/12/05 06:44:31;;;;;;;6.80;1.77;;;7.50;99.90;;;;;;5042343;28;20482;-71
2023/12/05 06:46:59;;;;;;;1.50;0.77;;;7.60;99.90;;;;;;5041917;28;20483;-69
2023/12/05 06:49:25;;;;;;;4.80;1.20;;;7.50;99.90;;;;;;5024165;28;20546;-66
2023/12/05 06:51:56;;;;;;;1.90;0.93;;;7.40;99.90;;;;;;5052761;28;20803;-70
2023/12/05 06:54:24;;;;;;;1.60;0.83;;;7.30;99.90;;;;;;5006303;28;20487;-69
2023/12/05 06:56:51;;;;;;;17.30;2.10;;;7.40;99.90;;;;;;5037968;28;20511;-73
2023/12/05 06:59:18;;;;;;;2.10;1.20;;;7.40;99.90;;;;;;5017930;28;20556;-68
2023/12/05 07:01:46;;;;;;;6.03;1.40;;;7.40;99.90;;;;;;5058055;28;20556;-69
2023/12/05 07:04:13;;;;;;;6.30;1.40;;;7.30;99.90;;;;;;5047165;28;20572;-69
2023/12/05 07:06:40;;;;;;;7.20;1.73;;;7.40;99.90;;;;;;5027081;28;20486;-69
2023/12/05 07:09:07;;;;;;;1.97;0.73;;;7.40;99.90;;;;;;5053961;28;20491;-72
2023/12/05 07:11:33;;;;;;;6.27;1.63;;;7.40;99.90;;;;;;5031558;28;20536;-72
2023/12/05 07:14:01;;;;;;;2.40;1.77;;;7.50;99.90;;;;;;5028383;28;20958;-71
2023/12/05 07:16:27;;;;;;;1.97;1.17;;;7.30;99.90;;;;;;5048642;28;20877;-72
2023/12/05 07:18:56;;;;;;;4.23;1.20;;;7.40;99.90;;;;;;5026444;28;20491;-70
2023/12/05 07:21:22;;;;;;;1.87;1.00;;;7.40;99.90;;;;;;5023193;28;21016;-70
2023/12/05 07:23:49;;;;;;;2.40;1.40;;;7.40;99.90;;;;;;5014089;28;20525;-72
2023/12/05 07:26:16;;;;;;;5.43;1.67;;;7.30;99.90;;;;;;5034385;28;20487;-70
2023/12/05 07:28:44;;;;;;;6.70;1.27;;;7.30;99.90;;;;;;5031706;28;20484;-71
2023/12/05 07:31:12;;;;;;;6.13;1.77;;;;;;;;;;5049816;28;20560;-67
2023/12/05 07:33:42;;;;;;;4.53;1.37;;;7.50;99.90;;;;;;5046684;28;20467;-71
2023/12/05 07:36:12;;;;;;;6.90;1.20;;;7.40;99.90;;;;;;5033354;28;21090;-71
2023/12/05 07:38:38;;;;;;;6.20;1.63;;;7.40;99.90;;;;;;5042639;28;20536;-69
2023/12/05 07:41:05;;;;;;;3.33;0.80;;;7.50;99.90;;;;;;5050979;28;20856;-69
2023/12/05 07:43:32;;;;;;;2.63;1.40;;;7.40;99.90;;;;;;5047175;28;21020;-67
2023/12/05 07:45:59;;;;;;;16.23;2.30;;;7.30;99.90;;;;;;5042256;28;20471;-69
2023/12/05 07:48:26;;;;;;;2.00;1.33;;;7.40;99.90;;;;;;5014815;28;20600;-70
2023/12/05 07:50:53;;;;;;;2.53;0.90;;;7.40;99.90;;;;;;5029534;28;21995;-71
2023/12/05 07:53:21;;;;;;;14.67;2.10;;;7.30;99.90;;;;;;5038018;28;20487;-70
2023/12/05 07:55:48;;;;;;;6.47;1.57;;;;;;;;;;5025249;28;20530;-69
2023/12/05 07:58:15;;;;;;;5.83;2.07;;;7.30;99.90;;;;;;5019501;28;20564;-70
2023/12/05 08:00:42;;;;;;;2.37;1.77;;;7.30;99.90;;;;;;5059145;28;21305;-66
2023/12/05 08:03:13;;;;;;;4.53;1.60;;;7.20;99.90;;;;;;5054995;28;20567;-70
2023/12/05 08:05:39;;;;;;;11.53;2.20;;;7.20;99.90;;;;;;5022417;28;20910;-70
2023/12/05 08:08:06;;;;;;;9.13;1.53;;;7.30;99.90;;;;;;5050669;28;20544;-71
2023/12/05 08:10:35;;;;;;;5.43;1.50;;;7.30;99.90;;;;;;5041706;28;20498;-70
2023/12/05 08:13:02;;;;;;;2.70;1.80;;;7.30;99.90;;;;;;5041040;28;20932;-71
2023/12/05 08:15:29;;;;;;;2.80;1.30;;;7.10;99.90;;;;;;5028030;28;20830;-71
2023/12/05 08:17:55;;;;;;;2.23;1.03;;;7.20;99.90;;;;;;5035133;28;20467;-72
2023/12/05 08:20:22;;;;;;;5.17;1.93;;;7.30;99.90;;;;;;5053927;28;20479;-70
2023/12/05 08:22:49;;;;;;;2.10;1.13;;;7.30;99.90;;;;;;5059131;28;20620;-72
2023/12/05 08:25:16;;;;;;;4.50;1.03;;;7.20;99.90;;;;;;5040500;28;20473;-70
2023/12/05 08:27:44;;;;;;;5.17;2.27;;;7.20;99.90;;;;;;5025189;28;20777;-70
2023/12/05 08:30:12;;;;;;;2.50;1.50;;;7.30;99.90;;;;;;5027759;28;20483;-70
2023/12/05 08:32:39;;;;;;;2.17;1.67;;;7.40;99.90;;;;;;5051894;28;20571;-72
2023/12/05 08:35:07;;;;;;;2.30;1.23;;;7.40;99.90;;;;;;5055303;28;21053;-71
2023/12/05 08:37:34;;;;;;;7.20;1.50;;;7.30;99.90;;;;;;5054651;28;20602;-71
2023/12/05 08:40:02;;;;;;;2.43;1.10;;;7.30;99.90;;;;;;5045941;28;20549;-71
2023/12/05 08:42:29;;;;;;;3.17;1.30;;;7.30;99.90;;;;;;5021034;28;20528;-71
2023/12/05 08:44:57;;;;;;;7.10;1.40;;;7.30;99.90;;;;;;5056838;28;20540;-73
2023/12/05 08:47:24;;;;;;;20.97;2.23;;;7.20;99.90;;;;;;5033730;28;20475;-76
2023/12/05 08:49:50;;;;;;;4.10;2.17;;;7.10;99.90;;;;;;5043413;28;20479;-69
2023/12/05 08:52:17;;;;;;;3.67;0.87;;;7.10;99.90;;;;;;5050977;28;20483;-71
2023/12/05 08:54:44;;;;;;;2.90;1.83;;;6.90;99.90;;;;;;5057860;28;20475;-70
2023/12/05 08:57:11;;;;;;;9.13;1.47;;;7.10;99.90;;;;;;5046520;28;20517;-73
2023/12/05 08:59:39;;;;;;;1.70;1.00;;;7.00;99.90;;;;;;5055804;28;21016;-72
2023/12/05 09:02:07;;;;;;;5.87;1.40;;;7.10;99.90;;;;;;5059001;28;20544;-72
2023/12/05 09:04:36;;;;;;;2.30;1.70;;;7.10;99.90;;;;;;5027356;28;20503;-73
2023/12/05 09:07:03;;;;;;;6.10;1.57;;;7.10;99.90;;;;;;5046395;28;20482;-72
2023/12/05 09:09:30;;;;;;;3.40;1.50;;;7.00;99.90;;;;;;5044664;28;20463;-74
2023/12/05 09:11:59;;;;;;;1.60;0.80;;;7.10;99.90;;;;;;5050047;28;20485;-79
2023/12/05 09:14:26;;;;;;;1.90;1.20;;;7.00;99.90;;;;;;5057766;28;20474;-75
2023/12/05 09:16:53;;;;;;;4.20;1.10;;;7.10;99.90;;;;;;5055099;28;20524;-74
2023/12/05 09:19:21;;;;;;;11.13;1.63;;;7.00;99.90;;;;;;5056139;28;20475;-77
2023/12/05 09:21:52;;;;;;;6.50;1.20;;;;;;;;;;5039796;28;20487;-79
2023/12/05 09:24:19;;;;;;;3.20;1.70;;;6.90;99.90;;;;;;5045656;28;20471;-76
2023/12/05 09:26:46;;;;;;;1.70;0.90;;;7.00;99.90;;;;;;5043449;28;20566;-77
2023/12/05 09:29:13;;;;;;;19.00;2.60;;;7.00;99.90;;;;;;5051894;28;20490;-74
2023/12/05 09:31:40;;;;;;;2.13;1.03;;;7.00;99.90;;;;;;5047899;28;20467;-75
2023/12/05 09:34:07;;;;;;;2.20;1.27;;;7.00;99.90;;;;;;5045134;28;20475;-77
2023/12/05 09:36:35;;;;;;;4.43;1.00;;;7.00;99.90;;;;;;5009819;28;21068;-75
2023/12/05 09:39:03;;;;;;;3.73;1.47;;;7.10;99.90;;;;;;5042339;28;20487;-77
2023/12/05 09:41:31;;;;;;;1.83;1.27;;;7.00;99.90;;;;;;5044600;28;20468;-74
2023/12/05 09:44:01;;;;;;;2.70;1.80;;;7.00;99.90;;;;;;5045220;28;20529;-75
2023/12/05 09:46:29;;;;;;;2.30;1.07;;;7.00;99.90;;;;;;5054980;28;20567;-77
2023/12/05 09:49:01;;;;;;;30.23;2.73;;;7.10;99.90;;;;;;5044269;28;20474;-79
2023/12/05 09:51:29;;;;;;;2.20;1.13;;;7.00;99.90;;;;;;5029656;28;20490;-79
2023/12/05 09:53:58;;;;;;;1.73;1.10;;;7.10;99.90;;;;;;5044756;28;20467;-76
2023/12/05 09:56:25;;;;;;;15.67;1.83;;;7.20;99.90;;;;;;5033851;28;20478;-77
2023/12/05 09:58:53;;;;;;;3.80;1.10;;;7.10;99.90;;;;;;5023811;28;20487;-74
2023/12/05 10:01:22;;;;;;;1.80;0.80;;;7.10;99.90;;;;;;5010125;28;20475;-76
2023/12/05 10:03:55;;;;;;;4.20;1.10;;;7.20;99.90;;;;;;5028651;28;20540;-76
2023/12/05 10:06:25;;;;;;;3.53;1.20;;;7.20;99.90;;;;;;5024582;28;21208;-77
2023/12/05 10:08:53;;;;;;;3.40;1.30;;;7.20;99.90;;;;;;5054013;28;21491;-79
2023/12/05 10:11:23;;;;;;;3.73;1.53;;;7.30;99.90;;;;;;5026360;28;20488;-82
2023/12/05 10:13:51;;;;;;;1.70;0.70;;;7.20;99.90;;;;;;5054140;28;20479;-80
2023/12/05 10:16:18;;;;;;;4.27;1.10;;;7.20;99.90;;;;;;5026248;28;20483;-80
2023/12/05 10:18:47;;;;;;;5.00;1.57;;;7.10;99.90;;;;;;5051855;28;20475;-75
2023/12/05 10:21:14;;;;;;;2.30;1.23;;;7.10;99.90;;;;;;5056083;28;20475;-77
2023/12/05 10:23:41;;;;;;;2.10;0.90;;;7.10;99.90;;;;;;5039111;28;20496;-77
2023/12/05 10:26:08;;;;;;;1.67;1.10;;;7.10;99.90;;;;;;5030994;28;20487;-74
2023/12/05 10:28:49;;;;;;;4.43;1.83;;;7.10;99.90;;;;;;5037213;28;20479;-77
2023/12/05 10:31:17;;;;;;;8.20;1.23;;;7.10;99.90;;;;;;5028043;28;20532;-73
2023/12/05 10:33:44;;;;;;;1.77;1.13;;;7.10;99.90;;;;;;5027121;28;20483;-74
2023/12/05 10:36:11;;;;;;;3.30;1.30;;;7.00;99.90;;;;;;5034326;28;20556;-76
2023/12/05 10:38:38;;;;;;;7.43;1.43;;;7.00;99.90;;;;;;5054389;28;20565;-80
2023/12/05 10:41:05;;;;;;;4.53;1.27;;;6.90;99.90;;;;;;5044726;28;21160;-79
2023/12/05 10:43:32;;;;;;;5.30;1.70;;;7.00;99.90;;;;;;5052655;28;20946;-72
2023/12/05 10:46:03;;;;;;;4.40;1.60;;;7.00;99.90;;;;;;5040403;28;20894;-74
2023/12/05 10:48:31;;;;;;;3.70;1.83;;;6.80;99.90;;;;;;5042299;28;20617;-77
2023/12/05 10:50:58;;;;;;;33.40;3.30;;;6.90;99.90;;;;;;5043348;28;20941;-75
2023/12/05 10:53:26;;;;;;;2.23;1.17;;;6.80;99.90;;;;;;5042676;28;20463;-74
2023/12/05 10:55:53;;;;;;;3.47;1.27;;;6.80;99.90;;;;;;5048427;28;20555;-75
2023/12/05 10:58:21;;;;;;;2.50;1.23;;;6.70;99.90;;;;;;5040281;28;20482;-74
2023/12/05 11:00:49;;;;;;;4.03;1.27;;;;;;;;;;5051983;28;20490;-75
2023/12/05 11:03:19;;;;;;;4.53;1.07;;;6.70;99.90;;;;;;5057788;28;20471;-75
2023/12/05 11:05:46;;;;;;;4.00;1.93;;;6.50;99.90;;;;;;5006891;28;20939;-79
2023/12/05 11:08:12;;;;;;;1.50;0.83;;;6.50;99.90;;;;;;4998179;28;20490;-76
2023/12/05 11:10:46;;;;;;;2.30;1.00;;;6.60;99.90;;;;;;5035617;28;20491;-79
2023/12/05 11:13:13;;;;;;;1.70;0.70;;;6.50;99.90;;;;;;5017967;28;20487;-74
2023/12/05 11:15:42;;;;;;;5.13;1.30;;;6.50;99.90;;;;;;5040594;28;20549;-77
2023/12/05 11:18:26;;;;;;;1.50;0.77;;;6.50;99.90;;;;;;5014592;28;20548;-78
2023/12/05 11:21:02;;;;;;;9.33;1.00;;;6.50;99.90;;;;;;5043387;28;20603;-74
2023/12/05 11:23:59;;;;;;;4.30;1.03;;;6.40;99.90;;;;;;5026881;28;20842;-76
2023/12/05 11:26:43;;;;;;;1.50;0.80;;;6.40;99.90;;;;;;5025956;28;20901;-79
2023/12/05 11:29:25;;;;;;;2.17;1.50;;;6.30;99.90;;;;;;5019355;28;20482;-78
2023/12/05 11:32:01;;;;;;;1.80;1.00;;;6.40;99.90;;;;;;5032776;28;20478;-73
2023/12/05 11:34:49;;;;;;;3.60;1.13;;;6.20;99.90;;;;;;5026313;28;20533;-77
2023/12/05 11:37:23;;;;;;;5.20;0.70;;;;;;;;;;5054034;28;20556;-77
2023/12/05 11:39:51;;;;;;;1.53;0.70;;;;;;;;;;5048189;28;20482;-74
2023/12/05 11:42:19;;;;;;;4.23;0.87;;;6.30;99.90;;;;;;5006841;28;20917;-75
2023/12/05 11:44:46;;;;;;;2.67;0.80;;;6.30;99.90;;;;;;5032912;28;20475;-77
2023/12/05 11:47:22;;;;;;;2.20;0.80;;;6.40;99.90;;;;;;5041789;28;20959;-74
2023/12/05 11:49:53;;;;;;;1.60;0.90;;;6.30;99.90;;;;;;5032697;28;20545;-76
2023/12/05 11:52:22;;;;;;;3.40;1.10;;;6.30;99.90;;;;;;5043625;28;20488;-77
2023/12/05 11:54:52;;;;;;;1.40;0.60;;;6.30;99.90;;;;;;5057817;28;20524;-76
2023/12/05 11:57:20;;;;;;;2.60;0.70;;;6.40;99.90;;;;;;5040990;28;20962;-76
2023/12/05 11:59:48;;;;;;;5.70;1.17;;;6.40;99.90;;;;;;5047744;28;20524;-77
2023/12/05 12:02:19;;;;;;;3.83;1.07;;;6.00;99.90;;;;;;5048074;28;20537;-81
2023/12/05 12:04:46;;;;;;;1.40;0.60;;;6.00;99.90;;;;;;5035620;28;20578;-77
2023/12/05 12:07:13;;;;;;;8.47;1.17;;;5.80;99.90;;;;;;5029939;28;20507;-77
2023/12/05 12:09:42;;;;;;;1.40;0.60;;;5.80;99.90;;;;;;5053238;28;20491;-75
2023/12/05 12:12:09;;;;;;;2.20;0.73;;;5.80;99.90;;;;;;5031490;28;20854;-75
2023/12/05 12:14:38;;;;;;;2.00;0.60;;;5.80;99.90;;;;;;5046391;28;20491;-76
2023/12/05 12:17:05;;;;;;;1.53;0.70;;;5.60;99.90;;;;;;5025587;28;20471;-76
2023/12/05 12:19:37;;;;;;;2.23;0.60;;;5.60;99.90;;;;;;5033130;28;20464;-76
2023/12/05 12:22:09;;;;;;;2.00;0.60;;;5.60;99.90;;;;;;5052302;28;20474;-76
2023/12/05 12:24:37;;;;;;;1.40;0.60;;;5.80;99.90;;;;;;5053674;28;20973;-82
2023/12/05 12:27:07;;;;;;;3.80;0.73;;;;;;;;;;5047655;28;20852;-75
2023/12/05 12:29:35;;;;;;;1.60;0.80;;;5.70;99.90;;;;;;5051064;28;20523;-78
2023/12/05 12:32:07;;;;;;;1.50;0.70;;;5.80;99.90;;;;;;5047797;28;20515;-79
2023/12/05 12:34:35;;;;;;;2.63;0.80;;;;;;;;;;5048499;28;20467;-78
2023/12/05 12:37:02;;;;;;;13.13;1.33;;;5.60;99.90;;;;;;5046713;28;20974;-76
2023/12/05 12:39:30;;;;;;;1.50;0.70;;;5.80;99.90;;;;;;5058445;28;20475;-75
2023/12/05 12:41:58;;;;;;;5.50;1.10;;;6.00;99.90;;;;;;5046233;28;20494;-73
2023/12/05 12:44:30;;;;;;;1.77;0.80;;;5.70;99.90;;;;;;5055437;28;20571;-73
2023/12/05 12:46:57;;;;;;;3.97;0.80;;;5.70;99.90;;;;;;5044251;28;20528;-76
2023/12/05 12:49:24;;;;;;;2.83;0.87;;;5.60;99.90;;;;;;5055267;28;20833;-76
2023/12/05 12:51:51;;;;;;;3.83;0.90;;;5.70;99.90;;;;;;5042294;28;20563;-77
2023/12/05 12:54:18;;;;;;;3.30;1.07;;;5.80;99.90;;;;;;5050058;28;20467;-75
2023/12/05 12:56:46;;;;;;;1.60;0.70;;;;;;;;;;5029938;28;20528;-77
2023/12/05 12:59:13;;;;;;;1.60;0.80;;;5.80;99.90;;;;;;5020748;28;20489;-77
2023/12/05 13:01:42;;;;;;;12.53;1.73;;;5.90;99.90;;;;;;5044448;28;20483;-78
2023/12/05 13:04:10;;;;;;;1.60;0.70;;;6.00;99.90;;;;;;5016072;28;20916;-75